createdAt,value
2019-01-26T00:01:35.950Z,24.80
2019-01-26T00:04:06.000Z,24.10
2019-01-26T00:06:35.783Z,24.20
2019-01-26T00:09:08.826Z,22.83
2019-01-26T00:11:38.609Z,24.67
2019-01-26T00:14:08.363Z,24.43
2019-01-26T00:16:38.001Z,21.73
2019-01-26T00:19:07.764Z,19.73
2019-01-26T00:21:37.397Z,21.13
2019-01-26T00:24:07.300Z,22.67
2019-01-26T00:26:36.923Z,23.83
2019-01-26T00:29:06.590Z,21.37
2019-01-26T00:31:36.229Z,22.97
2019-01-26T00:34:06.491Z,22.30
2019-01-26T00:36:36.148Z,22.03
2019-01-26T00:39:08.848Z,14.97
2019-01-26T00:41:38.665Z,21.90
2019-01-26T00:44:08.305Z,23.63
2019-01-26T00:46:38.190Z,22.67
2019-01-26T00:49:07.740Z,23.43
2019-01-26T00:51:37.433Z,20.43
2019-01-26T00:54:07.067Z,23.07
2019-01-26T00:56:36.944Z,20.63
2019-01-26T00:59:06.554Z,22.53
2019-01-26T01:01:36.706Z,20.53
2019-01-26T01:04:07.044Z,20.73
2019-01-26T01:06:37.096Z,22.30
2019-01-26T01:09:09.160Z,21.50
2019-01-26T01:11:38.976Z,17.30
2019-01-26T01:14:09.182Z,21.20
2019-01-26T01:16:38.871Z,19.40
2019-01-26T01:19:08.556Z,18.10
2019-01-26T01:21:38.778Z,19.77
2019-01-26T01:24:08.601Z,19.63
2019-01-26T01:26:38.297Z,19.47
2019-01-26T01:29:07.937Z,18.80
2019-01-26T01:31:37.630Z,18.73
2019-01-26T01:34:07.584Z,19.77
2019-01-26T01:36:37.235Z,19.23
2019-01-26T01:39:08.825Z,19.03
2019-01-26T01:41:38.536Z,16.00
2019-01-26T01:44:08.181Z,19.17
2019-01-26T01:46:42.901Z,18.73
2019-01-26T01:49:09.398Z,18.90
2019-01-26T01:51:39.185Z,19.63
2019-01-26T01:54:08.800Z,18.60
2019-01-26T01:56:38.811Z,19.27
2019-01-26T01:59:08.425Z,19.93
2019-01-26T02:01:38.134Z,19.67
2019-01-26T02:04:07.686Z,19.77
2019-01-26T02:06:37.830Z,20.13
2019-01-26T02:09:08.653Z,18.37
2019-01-26T02:11:38.290Z,20.57
2019-01-26T02:14:08.069Z,18.60
2019-01-26T02:16:37.664Z,20.63
2019-01-26T02:19:07.438Z,19.50
2019-01-26T02:21:37.205Z,20.07
2019-01-26T02:24:06.959Z,19.63
2019-01-26T02:26:36.499Z,19.33
2019-01-26T02:29:06.270Z,20.93
2019-01-26T02:31:35.896Z,20.77
2019-01-26T02:34:05.665Z,21.47
2019-01-26T02:36:35.323Z,20.60
2019-01-26T02:39:07.537Z,23.40
2019-01-26T02:41:37.257Z,21.43
2019-01-26T02:44:07.133Z,20.87
2019-01-26T02:46:37.143Z,23.60
2019-01-26T02:49:06.877Z,22.57
2019-01-26T02:51:55.961Z,22.23
2019-01-26T02:54:25.755Z,21.83
2019-01-26T02:56:55.608Z,21.33
2019-01-26T02:59:25.601Z,22.27
2019-01-26T03:01:55.504Z,20.53
2019-01-26T03:04:25.049Z,20.27
2019-01-26T03:06:54.806Z,20.53
2019-01-26T03:09:24.422Z,19.67
2019-01-26T03:11:54.203Z,20.70
2019-01-26T03:14:23.751Z,20.57
2019-01-26T03:16:53.909Z,21.70
2019-01-26T03:19:23.562Z,22.50
2019-01-26T03:21:53.519Z,21.10
2019-01-26T03:24:23.229Z,21.57
2019-01-26T03:26:52.910Z,22.70
2019-01-26T03:29:22.733Z,23.50
2019-01-26T03:31:52.306Z,23.17
2019-01-26T03:34:22.369Z,20.53
2019-01-26T03:36:51.961Z,21.70
2019-01-26T03:39:21.842Z,22.70
2019-01-26T03:41:51.673Z,22.37
2019-01-26T03:44:21.238Z,22.50
2019-01-26T03:46:50.849Z,21.90
2019-01-26T03:49:20.423Z,22.50
2019-01-26T03:51:50.045Z,22.83
2019-01-26T03:54:19.916Z,21.83
2019-01-26T03:56:49.519Z,22.53
2019-01-26T03:59:19.561Z,21.03
2019-01-26T04:01:49.486Z,21.47
2019-01-26T04:04:19.087Z,22.70
2019-01-26T04:06:49.005Z,21.63
2019-01-26T04:09:18.674Z,20.90
2019-01-26T04:11:48.534Z,21.63
2019-01-26T04:14:18.958Z,21.67
2019-01-26T04:16:48.791Z,21.63
2019-01-26T04:19:18.430Z,18.87
2019-01-26T04:21:47.995Z,19.40
2019-01-26T04:24:17.592Z,19.73
2019-01-26T04:26:47.092Z,19.77
2019-01-26T04:29:16.793Z,20.17
2019-01-26T04:31:46.287Z,19.70
2019-01-26T04:34:15.976Z,19.13
2019-01-26T04:36:52.826Z,18.73
2019-01-26T04:39:22.357Z,19.43
2019-01-26T04:41:52.028Z,19.47
2019-01-26T04:44:21.751Z,20.20
2019-01-26T04:46:51.270Z,20.03
2019-01-26T04:49:20.821Z,19.97
2019-01-26T04:51:50.382Z,19.53
2019-01-26T04:54:20.084Z,20.17
2019-01-26T04:56:49.640Z,17.57
2019-01-26T04:59:19.334Z,19.90
2019-01-26T05:01:48.937Z,19.37
2019-01-26T05:04:18.829Z,19.50
2019-01-26T05:06:48.655Z,21.33
2019-01-26T05:09:18.326Z,20.83
2019-01-26T05:11:48.089Z,20.27
2019-01-26T05:14:17.782Z,20.63
2019-01-26T05:16:47.458Z,23.17
2019-01-26T05:19:17.076Z,21.37
2019-01-26T05:21:46.812Z,20.40
2019-01-26T05:24:16.494Z,20.20
2019-01-26T05:26:46.420Z,20.57
2019-01-26T05:29:18.119Z,21.43
2019-01-26T05:31:47.821Z,21.30
2019-01-26T05:34:17.390Z,20.93
2019-01-26T05:36:47.060Z,20.47
2019-01-26T05:39:16.795Z,20.83
2019-01-26T05:41:46.518Z,21.73
2019-01-26T05:44:16.236Z,22.10
2019-01-26T05:46:45.845Z,22.33
2019-01-26T05:49:15.510Z,21.63
2019-01-26T05:51:45.144Z,22.50
2019-01-26T05:54:15.011Z,22.90
2019-01-26T05:56:45.255Z,24.10
2019-01-26T05:59:15.070Z,22.97
2019-01-26T06:01:44.719Z,21.23
2019-01-26T06:04:14.611Z,21.63
2019-01-26T06:06:44.484Z,20.40
2019-01-26T06:09:14.208Z,20.83
2019-01-26T06:11:44.007Z,20.03
2019-01-26T06:14:13.510Z,21.33
2019-01-26T06:16:43.436Z,22.00
2019-01-26T06:19:13.176Z,21.13
2019-01-26T06:21:42.860Z,20.40
2019-01-26T06:24:12.659Z,21.90
2019-01-26T06:26:42.692Z,21.67
2019-01-26T06:29:12.298Z,21.53
2019-01-26T06:31:42.165Z,22.17
2019-01-26T06:34:11.736Z,22.70
2019-01-26T06:36:41.566Z,23.60
2019-01-26T06:39:11.279Z,23.40
2019-01-26T06:41:40.880Z,24.40
2019-01-26T06:44:10.369Z,25.80
2019-01-26T06:46:40.274Z,23.87
2019-01-26T06:49:09.980Z,23.43
2019-01-26T06:51:41.204Z,26.57
2019-01-26T06:54:10.905Z,26.47
2019-01-26T06:56:40.720Z,22.83
2019-01-26T06:59:10.329Z,25.17
2019-01-26T07:01:40.130Z,25.37
2019-01-26T07:04:11.385Z,24.67
2019-01-26T07:06:41.400Z,24.50
2019-01-26T07:09:11.379Z,27.40
2019-01-26T07:11:41.049Z,26.83
2019-01-26T07:14:10.604Z,26.77
2019-01-26T07:16:40.313Z,25.87
2019-01-26T07:19:10.515Z,26.40
2019-01-26T07:21:40.116Z,25.37
2019-01-26T07:24:09.975Z,24.30
2019-01-26T07:26:39.603Z,26.50
2019-01-26T07:29:09.367Z,26.37
2019-01-26T07:31:38.944Z,24.70
2019-01-26T07:34:08.580Z,26.27
2019-01-26T07:36:38.207Z,26.40
2019-01-26T07:39:11.114Z,26.07
2019-01-26T07:41:40.808Z,25.73
2019-01-26T07:44:10.384Z,24.53
2019-01-26T07:46:40.160Z,25.00
2019-01-26T07:49:09.875Z,24.60
2019-01-26T07:51:39.559Z,22.37
2019-01-26T07:54:09.335Z,26.10
2019-01-26T07:56:39.035Z,24.53
2019-01-26T07:59:08.588Z,25.23
2019-01-26T08:01:38.123Z,25.43
2019-01-26T08:04:07.887Z,26.27
2019-01-26T08:06:37.777Z,26.10
2019-01-26T08:09:08.831Z,25.40
2019-01-26T08:11:38.439Z,24.83
2019-01-26T08:14:08.473Z,28.13
2019-01-26T08:16:38.461Z,24.30
2019-01-26T08:19:08.119Z,23.67
2019-01-26T08:21:37.638Z,24.90
2019-01-26T08:24:07.365Z,21.53
2019-01-26T08:26:37.167Z,19.30
2019-01-26T08:29:06.717Z,20.77
2019-01-26T08:31:36.484Z,22.33
2019-01-26T08:34:06.284Z,20.27
2019-01-26T08:36:36.247Z,16.93
2019-01-26T08:39:08.624Z,20.80
2019-01-26T08:41:38.656Z,19.97
2019-01-26T08:44:08.457Z,21.80
2019-01-26T08:46:38.073Z,19.47
2019-01-26T08:49:08.785Z,19.87
2019-01-26T08:51:39.184Z,18.97
2019-01-26T08:54:08.827Z,19.07
2019-01-26T08:56:38.550Z,17.93
2019-01-26T08:59:08.099Z,17.53
2019-01-26T09:01:37.687Z,19.33
2019-01-26T09:04:11.598Z,16.73
2019-01-26T09:06:41.593Z,16.27
2019-01-26T09:09:11.814Z,15.93
2019-01-26T09:11:41.509Z,16.87
2019-01-26T09:14:11.292Z,16.83
2019-01-26T09:16:41.357Z,18.30
2019-01-26T09:19:11.149Z,15.47
2019-01-26T09:21:40.790Z,16.10
2019-01-26T09:24:10.657Z,17.30
2019-01-26T09:26:40.237Z,16.67
2019-01-26T09:29:10.108Z,16.97
2019-01-26T09:31:39.682Z,17.17
2019-01-26T09:34:09.279Z,17.10
2019-01-26T09:36:39.066Z,17.03
2019-01-26T09:39:09.901Z,16.83
2019-01-26T09:41:39.706Z,15.30
2019-01-26T09:44:09.618Z,17.23
2019-01-26T09:46:39.346Z,16.83
2019-01-26T09:49:09.124Z,18.07
2019-01-26T09:51:39.247Z,17.87
2019-01-26T09:54:10.507Z,17.43
2019-01-26T09:56:40.276Z,15.73
2019-01-26T09:59:10.432Z,16.43
2019-01-26T10:01:40.078Z,17.90
2019-01-26T10:04:09.833Z,16.93
2019-01-26T10:06:39.698Z,17.47
2019-01-26T10:09:11.243Z,18.10
2019-01-26T10:11:40.793Z,17.50
2019-01-26T10:14:10.677Z,18.63
2019-01-26T10:16:40.842Z,18.23
2019-01-26T10:19:10.560Z,18.67
2019-01-26T10:21:40.355Z,18.57
2019-01-26T10:24:10.000Z,18.57
2019-01-26T10:26:40.142Z,17.97
2019-01-26T10:29:09.848Z,16.00
2019-01-26T10:31:39.522Z,16.00
2019-01-26T10:34:09.439Z,15.30
2019-01-26T10:36:40.763Z,15.30
2019-01-26T10:39:12.569Z,13.90
2019-01-26T10:41:44.457Z,13.63
2019-01-26T10:44:15.766Z,12.30
2019-01-26T10:46:45.501Z,12.23
2019-01-26T10:49:15.316Z,11.47
2019-01-26T10:51:45.066Z,11.00
2019-01-26T10:54:14.844Z,11.23
2019-01-26T10:56:44.877Z,11.87
2019-01-26T10:59:14.538Z,11.60
2019-01-26T11:01:44.825Z,12.20
2019-01-26T11:04:14.767Z,11.73
2019-01-26T11:06:44.812Z,12.10
2019-01-26T11:09:14.874Z,12.70
2019-01-26T11:11:44.865Z,12.97
2019-01-26T11:14:16.283Z,13.10
2019-01-26T11:16:45.947Z,13.40
2019-01-26T11:19:15.989Z,14.00
2019-01-26T11:21:45.855Z,14.03
2019-01-26T11:24:15.618Z,13.93
2019-01-26T11:26:49.467Z,13.43
2019-01-26T11:29:17.136Z,13.47
2019-01-26T11:31:46.849Z,13.90
2019-01-26T11:34:16.473Z,14.80
2019-01-26T11:36:46.468Z,10.47
2019-01-26T11:39:16.469Z,14.90
2019-01-26T11:41:46.532Z,14.13
2019-01-26T11:44:17.012Z,14.70
2019-01-26T11:46:46.895Z,15.07
2019-01-26T11:49:16.858Z,12.20
2019-01-26T11:51:46.403Z,15.43
2019-01-26T11:54:16.092Z,16.30
2019-01-26T11:56:47.717Z,14.80
2019-01-26T11:59:18.476Z,15.53
2019-01-26T12:01:50.166Z,15.00
2019-01-26T12:04:30.523Z,13.10
2019-01-26T12:07:04.706Z,14.67
2019-01-26T12:09:34.742Z,13.83
2019-01-26T12:12:06.101Z,11.83
2019-01-26T12:14:35.781Z,12.90
2019-01-26T12:17:05.486Z,13.07
2019-01-26T12:19:35.263Z,10.53
2019-01-26T12:22:04.935Z,12.63
2019-01-26T12:24:34.526Z,11.63
2019-01-26T12:27:04.091Z,11.13
2019-01-26T12:29:33.872Z,11.13
2019-01-26T12:32:03.529Z,11.53
2019-01-26T12:34:33.247Z,11.30
2019-01-26T12:37:03.053Z,12.10
2019-01-26T12:39:34.117Z,12.90
2019-01-26T12:42:03.958Z,12.37
2019-01-26T12:44:33.532Z,12.33
2019-01-26T12:47:03.446Z,13.73
2019-01-26T12:49:33.147Z,13.97
2019-01-26T12:52:03.270Z,15.97
2019-01-26T12:54:32.975Z,14.93
2019-01-26T12:57:02.657Z,15.37
2019-01-26T12:59:32.395Z,17.50
2019-01-26T13:02:02.200Z,16.03
2019-01-26T13:04:32.147Z,19.47
2019-01-26T13:07:05.432Z,19.30
2019-01-26T13:09:35.517Z,18.17
2019-01-26T13:12:05.285Z,17.97
2019-01-26T13:14:35.164Z,20.90
2019-01-26T13:17:05.230Z,18.73
2019-01-26T13:19:36.986Z,20.43
2019-01-26T13:22:07.005Z,19.80
2019-01-26T13:24:36.742Z,19.03
2019-01-26T13:27:06.578Z,17.70
2019-01-26T13:29:36.318Z,17.43
2019-01-26T13:32:06.020Z,16.30
2019-01-26T13:34:36.126Z,18.73
2019-01-26T13:37:06.187Z,17.27
2019-01-26T13:39:35.903Z,17.87
2019-01-26T13:42:06.346Z,19.63
2019-01-26T13:44:37.835Z,19.70
2019-01-26T13:47:07.535Z,16.90
2019-01-26T13:49:43.855Z,18.73
2019-01-26T13:52:09.030Z,17.47
2019-01-26T13:54:39.269Z,18.27
2019-01-26T13:57:08.931Z,17.43
2019-01-26T13:59:38.570Z,17.83
2019-01-26T14:02:08.659Z,20.13
2019-01-26T14:04:38.801Z,17.57
2019-01-26T14:07:09.071Z,19.03
2019-01-26T14:09:38.582Z,21.67
2019-01-26T14:12:08.504Z,23.33
2019-01-26T14:14:38.336Z,22.93
2019-01-26T14:17:07.960Z,24.93
2019-01-26T14:19:37.754Z,25.53
2019-01-26T14:22:07.413Z,24.87
2019-01-26T14:24:37.602Z,28.77
2019-01-26T14:27:07.708Z,26.77
2019-01-26T14:29:38.863Z,27.00
2019-01-26T14:32:08.707Z,28.00
2019-01-26T14:34:38.390Z,25.10
2019-01-26T14:37:08.560Z,21.47
2019-01-26T14:39:39.878Z,26.47
2019-01-26T14:42:09.495Z,27.50
2019-01-26T14:44:39.652Z,25.47
2019-01-26T14:47:09.453Z,26.10
2019-01-26T14:49:39.506Z,21.90
2019-01-26T14:52:09.685Z,25.70
2019-01-26T14:54:39.841Z,26.00
2019-01-26T14:57:10.386Z,27.13
2019-01-26T14:59:40.008Z,26.23
2019-01-26T15:02:10.534Z,28.73
2019-01-26T15:04:40.740Z,27.53
2019-01-26T15:07:11.000Z,27.27
2019-01-26T15:09:41.194Z,27.73
2019-01-26T15:12:10.970Z,27.30
2019-01-26T15:14:40.931Z,28.67
2019-01-26T15:17:10.918Z,29.27
2019-01-26T15:19:40.496Z,28.53
2019-01-26T15:22:10.177Z,25.43
2019-01-26T15:24:40.190Z,28.97
2019-01-26T15:27:10.487Z,29.97
2019-01-26T15:29:40.749Z,32.00
2019-01-26T15:32:10.959Z,32.07
2019-01-26T15:34:41.243Z,33.33
2019-01-26T15:37:11.194Z,34.83
2019-01-26T15:39:41.372Z,37.03
2019-01-26T15:42:11.398Z,36.47
2019-01-26T15:44:41.465Z,39.53
2019-01-26T15:47:11.666Z,39.23
2019-01-26T15:49:41.340Z,38.47
2019-01-26T15:52:11.451Z,41.87
2019-01-26T15:54:41.395Z,43.97
2019-01-26T15:57:11.188Z,43.50
2019-01-26T15:59:41.116Z,43.57
2019-01-26T16:02:10.933Z,45.63
2019-01-26T16:04:40.621Z,46.27
2019-01-26T16:07:10.342Z,46.47
2019-01-26T16:09:40.182Z,44.30
2019-01-26T16:12:10.102Z,45.93
2019-01-26T16:14:39.850Z,45.47
2019-01-26T16:17:09.689Z,39.53
2019-01-26T16:19:39.734Z,40.00
2019-01-26T16:22:09.986Z,38.23
2019-01-26T16:24:39.861Z,39.63
2019-01-26T16:27:09.849Z,39.23
2019-01-26T16:29:39.675Z,37.70
2019-01-26T16:32:09.659Z,37.33
2019-01-26T16:34:39.704Z,36.70
2019-01-26T16:37:09.715Z,36.57
2019-01-26T16:39:39.591Z,31.47
2019-01-26T16:42:10.201Z,32.77
2019-01-26T16:44:39.980Z,33.27
2019-01-26T16:47:10.014Z,33.37
2019-01-26T16:49:39.934Z,32.57
2019-01-26T16:52:13.952Z,31.37
2019-01-26T16:54:41.146Z,27.37
2019-01-26T16:57:12.055Z,31.20
2019-01-26T16:59:41.877Z,28.73
2019-01-26T17:02:11.814Z,29.33
2019-01-26T17:04:41.401Z,27.40
2019-01-26T17:07:11.380Z,27.77
2019-01-26T17:09:41.114Z,24.97
2019-01-26T17:12:11.243Z,23.73
2019-01-26T17:14:40.841Z,23.70
2019-01-26T17:17:10.845Z,23.87
2019-01-26T17:19:40.575Z,24.83
2019-01-26T17:22:10.415Z,24.77
2019-01-26T17:24:40.038Z,24.80
2019-01-26T17:27:10.199Z,26.60
2019-01-26T17:29:39.915Z,26.27
2019-01-26T17:32:09.618Z,24.90
2019-01-26T17:34:39.580Z,23.13
2019-01-26T17:37:09.588Z,23.60
2019-01-26T17:39:39.139Z,22.33
2019-01-26T17:42:09.229Z,20.77
2019-01-26T17:44:38.855Z,23.67
2019-01-26T17:47:08.762Z,23.10
2019-01-26T17:49:38.556Z,24.33
2019-01-26T17:52:08.308Z,24.23
2019-01-26T17:54:39.653Z,24.37
2019-01-26T17:57:09.584Z,24.20
2019-01-26T17:59:39.640Z,21.80
2019-01-26T18:02:10.148Z,25.07
2019-01-26T18:04:39.798Z,24.60
2019-01-26T18:07:09.463Z,25.77
2019-01-26T18:09:39.595Z,25.70
2019-01-26T18:12:09.548Z,23.93
2019-01-26T18:14:39.185Z,25.57
2019-01-26T18:17:08.994Z,24.27
2019-01-26T18:19:38.887Z,22.80
2019-01-26T18:22:08.600Z,21.70
2019-01-26T18:24:38.569Z,22.90
2019-01-26T18:27:08.234Z,23.37
2019-01-26T18:29:37.859Z,23.40
2019-01-26T18:32:07.599Z,22.77
2019-01-26T18:34:37.289Z,23.07
2019-01-26T18:37:07.035Z,23.93
2019-01-26T18:39:36.726Z,23.57
2019-01-26T18:42:06.548Z,23.63
2019-01-26T18:44:36.461Z,23.63
2019-01-26T18:47:06.649Z,23.13
2019-01-26T18:49:36.828Z,23.37
2019-01-26T18:52:06.938Z,22.00
2019-01-26T18:54:36.599Z,21.83
2019-01-26T18:57:06.662Z,22.20
2019-01-26T18:59:36.778Z,23.47
2019-01-26T19:02:07.512Z,21.50
2019-01-26T19:04:37.469Z,23.03
2019-01-26T19:07:07.294Z,26.13
2019-01-26T19:09:37.294Z,22.00
2019-01-26T19:12:07.011Z,22.20
2019-01-26T19:14:36.539Z,21.70
2019-01-26T19:17:06.368Z,20.37
2019-01-26T19:19:35.984Z,21.80
2019-01-26T19:22:05.965Z,22.30
2019-01-26T19:24:35.779Z,20.97
2019-01-26T19:27:05.984Z,22.03
2019-01-26T19:29:35.806Z,22.13
2019-01-26T19:32:05.663Z,22.83
2019-01-26T19:34:35.684Z,21.60
2019-01-26T19:37:09.335Z,20.77
2019-01-26T19:39:37.489Z,20.43
2019-01-26T19:42:07.690Z,20.27
2019-01-26T19:44:37.217Z,19.37
2019-01-26T19:47:07.217Z,18.77
2019-01-26T19:49:36.887Z,20.50
2019-01-26T19:52:06.999Z,18.33
2019-01-26T19:54:36.711Z,17.53
2019-01-26T19:57:06.364Z,17.30
2019-01-26T19:59:36.368Z,17.67
2019-01-26T20:02:07.293Z,16.67
2019-01-26T20:04:36.992Z,14.83
2019-01-26T20:07:06.747Z,15.23
2019-01-26T20:09:36.434Z,16.07
2019-01-26T20:12:06.182Z,13.00
2019-01-26T20:14:36.387Z,13.83
2019-01-26T20:17:06.154Z,12.73
2019-01-26T20:19:36.124Z,12.67
2019-01-26T20:22:06.102Z,12.87
2019-01-26T20:24:35.790Z,12.03
2019-01-26T20:27:05.912Z,10.77
2019-01-26T20:29:35.665Z,10.40
2019-01-26T20:32:05.490Z,10.80
2019-01-26T20:34:35.509Z,11.20
2019-01-26T20:37:05.684Z,11.80
2019-01-26T20:39:35.561Z,11.03
2019-01-26T20:42:05.609Z,10.93
2019-01-26T20:44:35.263Z,10.83
2019-01-26T20:47:05.352Z,10.33
2019-01-26T20:49:35.382Z,10.67
2019-01-26T20:52:05.363Z,10.03
2019-01-26T20:54:34.994Z,10.13
2019-01-26T20:57:05.013Z,9.77
2019-01-26T20:59:34.766Z,10.67
2019-01-26T21:02:05.356Z,10.80
2019-01-26T21:04:35.379Z,10.17
2019-01-26T21:07:05.084Z,11.37
2019-01-26T21:09:34.885Z,11.93
2019-01-26T21:12:04.752Z,9.43
2019-01-26T21:14:34.597Z,10.57
2019-01-26T21:17:04.547Z,10.73
2019-01-26T21:19:34.765Z,9.47
2019-01-26T21:22:04.468Z,9.43
2019-01-26T21:24:34.226Z,10.00
2019-01-26T21:27:03.997Z,10.27
2019-01-26T21:29:34.138Z,9.90
2019-01-26T21:32:04.240Z,9.63
2019-01-26T21:34:34.202Z,9.70
2019-01-26T21:37:03.807Z,10.17
2019-01-26T21:39:33.421Z,10.00
2019-01-26T21:42:03.141Z,9.87
2019-01-26T21:44:33.058Z,10.27
2019-01-26T21:47:02.931Z,9.93
2019-01-26T21:49:32.627Z,9.90
2019-01-26T21:52:02.464Z,10.70
2019-01-26T21:54:32.594Z,9.80
2019-01-26T21:57:02.337Z,11.03
2019-01-26T21:59:39.354Z,10.03
2019-01-26T22:02:09.337Z,10.47
2019-01-26T22:04:39.125Z,10.47
2019-01-26T22:07:08.947Z,9.60
2019-01-26T22:09:38.698Z,8.87
2019-01-26T22:12:08.584Z,9.07
2019-01-26T22:14:38.394Z,9.43
2019-01-26T22:17:08.325Z,9.00
2019-01-26T22:19:38.067Z,8.57
2019-01-26T22:22:08.030Z,8.13
2019-01-26T22:24:37.781Z,8.10
2019-01-26T22:27:07.680Z,8.23
2019-01-26T22:29:37.724Z,7.70
2019-01-26T22:32:09.094Z,7.27
2019-01-26T22:34:39.073Z,7.73
2019-01-26T22:37:09.175Z,7.73
2019-01-26T22:39:39.508Z,7.93
2019-01-26T22:42:09.587Z,7.50
2019-01-26T22:44:39.775Z,7.13
2019-01-26T22:47:10.844Z,6.27
2019-01-26T22:49:40.764Z,5.80
2019-01-26T22:52:10.542Z,5.60
2019-01-26T22:54:40.693Z,5.53
2019-01-26T22:57:10.705Z,5.30
2019-01-26T22:59:40.784Z,5.27
2019-01-26T23:02:10.687Z,4.70
2019-01-26T23:04:45.028Z,4.60
2019-01-26T23:07:28.737Z,4.53
2019-01-26T23:10:18.051Z,4.30
2019-01-26T23:13:04.286Z,3.57
2019-01-26T23:15:56.511Z,3.60
2019-01-26T23:19:08.188Z,3.83
2019-01-26T23:21:51.378Z,3.50
2019-01-26T23:24:54.278Z,3.67
2019-01-26T23:28:03.557Z,3.50
2019-01-26T23:31:14.165Z,3.03
2019-01-26T23:33:44.716Z,2.97
2019-01-26T23:36:15.867Z,3.43
2019-01-26T23:38:45.622Z,2.93
2019-01-26T23:41:15.549Z,2.90
2019-01-26T23:43:45.588Z,2.70
2019-01-26T23:46:15.367Z,2.57
2019-01-26T23:48:45.366Z,2.57
2019-01-26T23:51:15.662Z,2.50
2019-01-26T23:53:45.482Z,2.30
2019-01-26T23:56:15.244Z,2.20
2019-01-26T23:58:45.267Z,2.40
